Time;durP1;ratioP1;P1;durP2;ratioP2;P2;SDS_P1;SDS_P2;PMS_P1;PMS_P2;Temp;Humidity;BMP_temperature;BMP_pressure;BME280_temperature;BME280_humidity;BME280_pressure;Samples;Min_cycle;Max_cycle;Signal;HPM_P1;HPM_P2
2023/02/24 00:02:14;;;;;;;24.30;12.90;;;8.80;99.90;;;;;;5113840;28;20161;-72
2023/02/24 00:04:40;;;;;;;24.70;13.93;;;8.80;99.90;;;;;;5113672;28;20407;-72
2023/02/24 00:07:10;;;;;;;25.40;13.27;;;8.70;99.90;;;;;;5130742;27;20402;-72
2023/02/24 00:09:37;;;;;;;22.23;12.33;;;8.70;99.90;;;;;;5134051;27;20907;-72
2023/02/24 00:12:09;;;;;;;23.87;14.30;;;8.70;99.90;;;;;;5132721;27;20421;-72
2023/02/24 00:14:37;;;;;;;28.33;17.40;;;8.60;99.90;;;;;;5133672;27;20433;-72
2023/02/24 00:17:06;;;;;;;33.13;15.30;;;8.60;99.90;;;;;;5133778;27;20401;-72
2023/02/24 00:19:33;;;;;;;30.27;14.00;;;8.50;99.90;;;;;;5133710;27;20421;-72
2023/02/24 00:22:00;;;;;;;25.67;13.10;;;8.50;99.90;;;;;;5132636;27;20409;-72
2023/02/24 00:24:26;;;;;;;26.27;13.37;;;8.40;99.90;;;;;;5133741;27;20732;-72
2023/02/24 00:26:58;;;;;;;29.30;11.40;;;8.40;99.90;;;;;;5133637;27;20470;-70
2023/02/24 00:29:24;;;;;;;28.73;13.60;;;8.40;99.90;;;;;;5133724;27;20429;-70
2023/02/24 00:31:57;;;;;;;28.17;14.30;;;8.40;99.90;;;;;;5141465;27;20443;-70
2023/02/24 00:34:24;;;;;;;30.70;14.80;;;8.40;99.90;;;;;;5154434;27;20897;-70
2023/02/24 00:36:49;;;;;;;27.80;14.20;;;8.30;99.90;;;;;;5120791;27;20445;-71
2023/02/24 00:39:15;;;;;;;25.27;12.67;;;8.30;99.90;;;;;;5112898;28;20431;-70
2023/02/24 00:41:42;;;;;;;24.17;13.17;;;8.30;99.90;;;;;;5112964;28;20196;-71
2023/02/24 00:44:11;;;;;;;20.20;11.20;;;8.20;99.90;;;;;;5111773;28;20169;-72
2023/02/24 00:46:44;;;;;;;34.50;12.53;;;8.20;99.90;;;;;;5112767;28;20497;-72
2023/02/24 00:49:17;;;;;;;22.23;12.50;;;8.20;99.90;;;;;;5112747;28;20920;-72
2023/02/24 00:51:45;;;;;;;22.00;11.03;;;8.20;99.90;;;;;;5112950;28;20831;-72
2023/02/24 00:54:15;;;;;;;24.67;9.90;;;8.20;99.90;;;;;;5112028;28;20405;-71
2023/02/24 00:56:45;;;;;;;22.07;9.40;;;8.10;99.90;;;;;;5113088;28;20431;-71
2023/02/24 00:59:13;;;;;;;20.60;10.30;;;8.10;99.90;;;;;;5112487;28;20423;-71
2023/02/24 01:01:39;;;;;;;20.80;9.97;;;8.10;99.90;;;;;;5111373;28;21048;-72
2023/02/24 01:04:10;;;;;;;15.10;7.73;;;8.10;99.90;;;;;;5112604;28;20413;-72
2023/02/24 01:06:38;;;;;;;14.97;8.87;;;8.10;99.90;;;;;;5114257;28;20434;-72
2023/02/24 01:09:07;;;;;;;14.53;7.60;;;8.10;99.90;;;;;;5112453;28;20475;-72
2023/02/24 01:14:21;;;;;;;13.53;4.80;;;8.00;99.90;;;;;;5112621;28;20433;-71
2023/02/24 01:16:49;;;;;;;17.50;4.93;;;8.00;99.90;;;;;;5111172;28;20406;-71
2023/02/24 01:19:19;;;;;;;17.40;5.93;;;8.00;99.90;;;;;;5111085;28;20423;-71
2023/02/24 01:21:46;;;;;;;10.13;4.83;;;8.00;99.90;;;;;;5112411;28;21333;-72
2023/02/24 01:24:14;;;;;;;11.50;4.83;;;7.90;99.90;;;;;;5112346;28;20411;-71
2023/02/24 01:26:40;;;;;;;17.53;4.97;;;7.90;99.90;;;;;;5112327;28;20484;-71
2023/02/24 01:29:09;;;;;;;12.50;5.67;;;7.90;99.90;;;;;;5112092;28;20774;-72
2023/02/24 01:31:41;;;;;;;13.67;5.10;;;7.90;99.90;;;;;;5112295;28;20479;-70
2023/02/24 01:34:11;;;;;;;20.57;5.47;;;7.80;99.90;;;;;;5112284;28;20414;-70
2023/02/24 01:36:39;;;;;;;9.83;5.43;;;7.80;99.90;;;;;;5130557;28;20429;-71
2023/02/24 01:39:09;;;;;;;9.00;4.93;;;7.70;99.90;;;;;;5132552;27;20421;-70
2023/02/24 01:41:36;;;;;;;16.07;6.20;;;7.70;99.90;;;;;;5132845;27;20453;-70
2023/02/24 01:44:28;;;;;;;15.97;7.50;;;7.70;99.90;;;;;;5133259;27;20417;-70
2023/02/24 01:46:54;;;;;;;12.87;8.07;;;7.70;99.90;;;;;;5132414;27;20398;-71
2023/02/24 01:49:32;;;;;;;14.20;7.30;;;7.70;99.90;;;;;;5132758;27;20516;-72
2023/02/24 01:52:04;;;;;;;13.30;7.10;;;7.70;99.90;;;;;;5132792;27;20436;-72
2023/02/24 01:54:35;;;;;;;11.57;5.83;;;7.70;99.90;;;;;;5132703;27;20421;-72
2023/02/24 01:57:04;;;;;;;18.53;7.33;;;7.70;99.90;;;;;;5132497;27;20412;-72
2023/02/24 01:59:32;;;;;;;14.67;6.40;;;7.70;99.90;;;;;;5132522;27;20448;-72
2023/02/24 02:02:03;;;;;;;15.83;6.73;;;7.70;99.90;;;;;;5132838;27;20967;-72
2023/02/24 02:04:35;;;;;;;12.50;6.63;;;7.70;99.90;;;;;;5131724;27;20892;-72
2023/02/24 02:07:01;;;;;;;16.80;6.93;;;7.60;99.90;;;;;;5115544;28;20417;-72
2023/02/24 02:09:27;;;;;;;20.50;7.10;;;7.60;99.90;;;;;;5115962;28;20784;-72
2023/02/24 02:11:52;;;;;;;15.13;7.67;;;7.60;99.90;;;;;;5114647;28;20267;-72
2023/02/24 02:14:23;;;;;;;14.07;6.33;;;7.60;99.90;;;;;;5115881;28;20517;-72
2023/02/24 02:17:50;;;;;;;12.13;6.63;;;7.60;99.90;;;;;;5115860;28;20169;-72
2023/02/24 02:20:37;;;;;;;9.40;4.77;;;7.60;99.90;;;;;;5012152;28;20458;-72
2023/02/24 02:23:18;;;;;;;14.83;5.40;;;7.60;99.90;;;;;;5114482;28;20425;-72
2023/02/24 02:26:07;;;;;;;18.37;5.40;;;7.50;99.90;;;;;;5115804;27;20387;-72
2023/02/24 02:28:52;;;;;;;11.10;6.13;;;7.50;99.90;;;;;;5115356;28;20394;-72
2023/02/24 02:31:45;;;;;;;18.10;5.47;;;7.50;99.90;;;;;;5114357;28;20416;-72
2023/02/24 02:34:35;;;;;;;11.60;5.70;;;7.40;99.90;;;;;;5114338;28;20502;-71
2023/02/24 02:37:11;;;;;;;16.27;6.27;;;7.40;99.90;;;;;;5113982;28;20520;-72
2023/02/24 02:39:57;;;;;;;17.47;8.27;;;7.40;99.90;;;;;;5115328;28;20430;-72
2023/02/24 02:42:39;;;;;;;11.10;5.60;;;7.30;99.90;;;;;;5115523;28;20420;-72
2023/02/24 02:45:18;;;;;;;9.80;5.27;;;7.30;99.90;;;;;;5115506;28;20395;-72
2023/02/24 02:48:00;;;;;;;12.50;4.33;;;7.20;99.90;;;;;;5115007;28;20414;-72
2023/02/24 02:50:34;;;;;;;12.80;5.27;;;7.20;99.90;;;;;;5126134;27;20779;-72
2023/02/24 02:53:04;;;;;;;11.23;4.77;;;7.10;99.90;;;;;;5143855;27;20413;-72
2023/02/24 02:55:33;;;;;;;10.30;4.20;;;7.10;99.90;;;;;;5135753;27;20579;-72
2023/02/24 02:58:01;;;;;;;10.03;4.30;;;7.00;99.90;;;;;;5135389;27;20410;-71
2023/02/24 03:00:34;;;;;;;9.60;4.80;;;7.00;99.90;;;;;;5135530;27;20453;-71
2023/02/24 03:03:07;;;;;;;17.77;5.53;;;7.00;99.90;;;;;;5135664;27;20473;-71
2023/02/24 03:05:42;;;;;;;14.00;2.93;;;7.00;99.90;;;;;;5127482;27;20445;-71
2023/02/24 03:08:14;;;;;;;8.30;4.80;;;6.90;99.90;;;;;;5119158;27;20535;-71
2023/02/24 03:10:44;;;;;;;19.43;4.30;;;6.90;99.90;;;;;;5135413;27;20421;-70
2023/02/24 03:13:12;;;;;;;9.77;3.47;;;6.90;99.90;;;;;;5135317;27;20417;-71
2023/02/24 03:15:43;;;;;;;8.13;2.60;;;6.80;99.90;;;;;;5135416;27;20767;-71
2023/02/24 03:18:17;;;;;;;8.03;2.60;;;6.80;99.90;;;;;;5134152;27;20887;-71
2023/02/24 03:20:55;;;;;;;9.63;2.90;;;6.80;99.90;;;;;;5134695;27;20784;-71
2023/02/24 03:23:28;;;;;;;12.73;2.90;;;6.80;99.90;;;;;;5135084;27;20918;-72
2023/02/24 03:26:02;;;;;;;6.33;3.40;;;6.80;99.90;;;;;;5135150;27;21013;-71
2023/02/24 03:28:36;;;;;;;7.10;2.67;;;6.80;99.90;;;;;;5134788;27;20911;-71
2023/02/24 03:31:26;;;;;;;12.73;4.20;;;6.80;99.90;;;;;;5133651;27;20489;-71
2023/02/24 03:34:04;;;;;;;12.80;3.50;;;6.80;99.90;;;;;;5134913;27;20409;-71
2023/02/24 03:36:30;;;;;;;9.50;3.10;;;6.80;99.90;;;;;;5134924;27;20398;-71
2023/02/24 03:38:57;;;;;;;3.40;2.20;;;6.80;99.90;;;;;;5133224;27;20433;-71
2023/02/24 03:41:29;;;;;;;6.57;2.17;;;6.80;99.90;;;;;;5134743;27;20469;-70
2023/02/24 03:43:56;;;;;;;10.83;2.57;;;6.80;99.90;;;;;;5134958;27;20410;-71
2023/02/24 03:46:21;;;;;;;9.77;2.80;;;6.80;99.90;;;;;;5135173;27;20394;-70
2023/02/24 03:48:54;;;;;;;4.13;2.00;;;6.80;99.90;;;;;;5134251;27;20424;-71
2023/02/24 03:51:22;;;;;;;6.30;2.90;;;6.90;99.90;;;;;;5134665;27;20171;-71
2023/02/24 03:54:07;;;;;;;8.40;2.37;;;6.90;99.90;;;;;;5134564;27;20409;-71
2023/02/24 03:56:56;;;;;;;8.33;3.17;;;6.90;99.90;;;;;;5134522;27;20429;-71
2023/02/24 03:59:31;;;;;;;8.07;2.00;;;6.90;99.90;;;;;;5134534;27;20474;-71
2023/02/24 04:02:06;;;;;;;5.27;1.67;;;6.90;99.90;;;;;;5137993;27;20449;-71
2023/02/24 04:05:02;;;;;;;5.60;2.13;;;6.90;99.90;;;;;;5138281;27;20411;-71
2023/02/24 04:07:42;;;;;;;23.80;2.93;;;6.80;99.90;;;;;;5101456;28;20429;-71
2023/02/24 04:10:21;;;;;;;8.43;2.60;;;6.80;99.90;;;;;;5113624;28;20507;-71
2023/02/24 04:12:58;;;;;;;4.43;2.30;;;6.80;99.90;;;;;;5113651;28;20433;-71
2023/02/24 04:15:42;;;;;;;5.23;2.10;;;6.80;99.90;;;;;;5113860;28;20407;-72
2023/02/24 04:18:20;;;;;;;6.40;2.40;;;6.80;99.90;;;;;;5113411;28;20443;-70
2023/02/24 04:20:51;;;;;;;10.20;3.07;;;6.80;99.90;;;;;;5113484;28;20477;-70
2023/02/24 04:23:22;;;;;;;5.33;2.67;;;6.80;99.90;;;;;;5113584;28;20398;-71
2023/02/24 04:25:50;;;;;;;10.73;1.97;;;6.80;99.90;;;;;;5113412;28;20418;-71
2023/02/24 04:28:20;;;;;;;7.20;2.33;;;6.80;99.90;;;;;;5113086;28;20783;-72
2023/02/24 04:30:50;;;;;;;5.17;1.87;;;6.80;99.90;;;;;;5113319;28;20410;-72
2023/02/24 04:33:16;;;;;;;8.50;2.80;;;6.80;99.90;;;;;;5113196;28;20401;-72
2023/02/24 04:35:49;;;;;;;10.47;2.90;;;6.80;99.90;;;;;;5113195;27;20406;-72
2023/02/24 04:38:15;;;;;;;11.40;2.03;;;6.80;99.90;;;;;;5112904;28;20402;-72
2023/02/24 04:40:41;;;;;;;7.20;1.77;;;6.70;99.90;;;;;;5113035;28;20548;-72
2023/02/24 04:43:07;;;;;;;5.70;2.20;;;6.70;99.90;;;;;;5113065;28;20503;-72
2023/02/24 04:45:33;;;;;;;7.30;2.63;;;6.70;99.90;;;;;;5113006;28;20772;-72
2023/02/24 04:48:00;;;;;;;16.60;3.00;;;6.70;99.90;;;;;;5112729;28;20203;-71
2023/02/24 04:50:32;;;;;;;4.27;2.20;;;6.70;99.90;;;;;;5112991;28;20462;-72
2023/02/24 04:53:06;;;;;;;5.80;2.30;;;6.70;99.90;;;;;;5112895;28;20406;-72
2023/02/24 04:55:38;;;;;;;10.53;2.33;;;6.70;99.90;;;;;;5111673;28;20410;-72
2023/02/24 04:58:05;;;;;;;8.10;2.17;;;6.70;99.90;;;;;;5112642;28;20836;-72
2023/02/24 05:00:34;;;;;;;3.50;1.77;;;6.70;99.90;;;;;;5112686;28;20446;-71
2023/02/24 05:03:02;;;;;;;6.97;2.27;;;6.60;99.90;;;;;;5112600;28;20403;-71
2023/02/24 05:05:28;;;;;;;5.40;2.40;;;6.60;99.90;;;;;;5117914;27;20417;-72
2023/02/24 05:07:56;;;;;;;5.67;2.10;;;6.50;99.90;;;;;;5122841;27;20406;-72
2023/02/24 05:10:26;;;;;;;3.83;1.70;;;6.50;99.90;;;;;;5142461;27;20436;-73
2023/02/24 05:12:53;;;;;;;4.50;2.17;;;6.40;99.90;;;;;;5133116;27;20831;-72
2023/02/24 05:15:19;;;;;;;4.90;2.23;;;6.30;99.90;;;;;;5132961;27;20462;-71
2023/02/24 05:17:44;;;;;;;8.63;2.70;;;6.20;99.90;;;;;;5132754;27;20883;-70
2023/02/24 05:22:55;;;;;;;7.00;3.47;;;6.00;99.90;;;;;;5133211;27;20221;-70
2023/02/24 05:25:24;;;;;;;7.17;2.30;;;5.90;99.90;;;;;;5133134;27;20409;-71
2023/02/24 05:27:49;;;;;;;4.90;2.30;;;5.80;99.90;;;;;;5132807;27;20906;-71
2023/02/24 05:30:15;;;;;;;2.97;1.30;;;5.80;99.90;;;;;;5131599;27;20429;-71
2023/02/24 05:32:41;;;;;;;3.73;1.90;;;5.80;99.90;;;;;;5132428;28;20928;-71
2023/02/24 05:35:07;;;;;;;9.30;2.40;;;5.80;99.90;;;;;;5112347;28;20233;-71
2023/02/24 05:37:37;;;;;;;7.37;3.23;;;5.80;99.90;;;;;;5112294;28;20900;-73
2023/02/24 05:40:04;;;;;;;6.63;2.03;;;5.90;99.90;;;;;;5112862;28;20450;-71
2023/02/24 05:42:33;;;;;;;7.53;2.03;;;5.90;99.90;;;;;;5116865;27;20813;-70
2023/02/24 05:45:00;;;;;;;6.43;2.33;;;5.90;99.90;;;;;;5116639;28;20476;-71
2023/02/24 05:47:26;;;;;;;12.40;3.47;;;6.00;99.90;;;;;;5116194;27;20459;-72
2023/02/24 05:49:53;;;;;;;13.00;2.80;;;6.00;99.90;;;;;;5115077;28;20419;-71
2023/02/24 05:52:19;;;;;;;9.77;2.90;;;6.00;99.90;;;;;;5116456;28;20406;-72
2023/02/24 05:54:47;;;;;;;9.17;3.50;;;5.90;99.90;;;;;;5116331;28;20402;-71
2023/02/24 05:57:18;;;;;;;6.53;2.23;;;5.90;99.90;;;;;;5115963;28;20402;-72
2023/02/24 05:59:44;;;;;;;2.60;1.60;;;5.80;99.90;;;;;;5116145;28;21112;-71
2023/02/24 06:02:14;;;;;;;2.90;1.83;;;5.70;99.90;;;;;;5117122;27;20440;-71
2023/02/24 06:04:52;;;;;;;8.57;2.20;;;5.60;99.90;;;;;;5116070;27;20183;-72
2023/02/24 06:07:26;;;;;;;4.37;1.40;;;5.50;99.90;;;;;;5115778;28;20405;-71
2023/02/24 06:09:56;;;;;;;3.90;1.63;;;5.40;99.90;;;;;;5115989;28;20816;-71
2023/02/24 06:12:26;;;;;;;3.27;1.67;;;5.30;99.90;;;;;;5115847;28;20411;-71
2023/02/24 06:14:51;;;;;;;4.20;1.70;;;5.20;99.90;;;;;;5114447;28;20399;-71
2023/02/24 06:17:18;;;;;;;9.43;2.07;;;5.10;99.90;;;;;;5118844;27;20413;-71
2023/02/24 06:19:48;;;;;;;3.80;2.20;;;5.00;99.90;;;;;;5130886;27;20235;-71
2023/02/24 06:22:15;;;;;;;4.93;2.00;;;4.90;99.90;;;;;;5142260;27;20513;-72
2023/02/24 06:24:43;;;;;;;13.20;1.93;;;4.90;99.90;;;;;;5136281;27;20455;-72
2023/02/24 06:27:17;;;;;;;5.50;1.97;;;4.80;99.90;;;;;;5134621;27;20414;-72
2023/02/24 06:29:50;;;;;;;3.00;1.50;;;4.80;99.90;;;;;;5136350;27;20432;-71
2023/02/24 06:32:18;;;;;;;6.03;1.90;;;4.80;99.90;;;;;;5136330;27;20758;-71
2023/02/24 06:34:43;;;;;;;9.93;2.50;;;4.80;99.90;;;;;;5136523;27;20494;-71
2023/02/24 06:37:12;;;;;;;5.20;2.57;;;4.80;99.90;;;;;;5134717;27;20421;-72
2023/02/24 06:39:38;;;;;;;8.70;2.80;;;4.90;99.90;;;;;;5136000;27;20184;-72
2023/02/24 06:42:07;;;;;;;8.47;2.20;;;4.90;99.90;;;;;;5135860;27;20978;-71
2023/02/24 06:44:35;;;;;;;9.43;2.87;;;5.00;99.90;;;;;;5135948;27;20481;-71
2023/02/24 06:47:01;;;;;;;9.43;5.27;;;5.10;99.90;;;;;;5134306;27;20410;-72
2023/02/24 06:49:28;;;;;;;6.00;2.20;;;5.20;99.90;;;;;;5134577;27;20428;-72
2023/02/24 06:51:54;;;;;;;5.33;2.27;;;5.30;99.90;;;;;;5134466;27;20398;-72
2023/02/24 06:54:21;;;;;;;8.57;2.70;;;5.40;99.90;;;;;;5136068;27;20975;-72
2023/02/24 06:56:47;;;;;;;5.73;2.30;;;5.40;99.90;;;;;;5134608;27;20916;-72
2023/02/24 06:59:20;;;;;;;2.53;2.03;;;5.50;99.90;;;;;;5135374;27;20413;-72
2023/02/24 07:01:48;;;;;;;10.33;2.10;;;5.70;99.90;;;;;;5116537;27;20450;-71
2023/02/24 07:06:43;;;;;;;11.37;1.70;;;5.90;99.90;;;;;;5115021;28;20482;-72
2023/02/24 07:09:14;;;;;;;8.60;1.97;;;6.00;99.90;;;;;;5114442;28;20419;-72
2023/02/24 07:11:42;;;;;;;4.37;2.00;;;6.20;99.90;;;;;;5114848;28;20403;-72
2023/02/24 07:14:10;;;;;;;9.87;2.20;;;6.30;99.90;;;;;;5114570;28;20423;-72
2023/02/24 07:16:36;;;;;;;8.17;2.50;;;6.40;99.90;;;;;;5114705;28;20402;-72
2023/02/24 07:19:08;;;;;;;5.63;1.80;;;6.40;99.90;;;;;;5114409;28;20820;-72
2023/02/24 07:21:38;;;;;;;9.13;2.10;;;6.50;99.90;;;;;;5114753;28;20438;-71
2023/02/24 07:24:05;;;;;;;4.70;1.90;;;6.50;99.90;;;;;;5114711;28;20395;-71
2023/02/24 07:26:32;;;;;;;6.10;1.90;;;6.50;99.90;;;;;;5114601;28;20896;-71
2023/02/24 07:28:58;;;;;;;8.77;2.53;;;6.60;99.90;;;;;;5114661;27;20907;-71
2023/02/24 07:31:24;;;;;;;5.20;2.13;;;6.60;99.90;;;;;;5134558;27;20509;-71
2023/02/24 07:33:56;;;;;;;13.63;2.87;;;6.70;99.90;;;;;;5150994;27;20488;-71
2023/02/24 07:36:23;;;;;;;3.97;2.27;;;6.70;99.90;;;;;;5156148;27;20709;-72
2023/02/24 07:38:52;;;;;;;4.23;1.37;;;6.70;99.90;;;;;;5155278;27;20800;-72
2023/02/24 07:41:21;;;;;;;8.70;1.33;;;6.70;99.90;;;;;;5155487;27;20444;-72
2023/02/24 07:43:51;;;;;;;6.40;2.23;;;6.80;99.90;;;;;;5155611;27;20405;-71
2023/02/24 07:46:19;;;;;;;5.80;1.80;;;6.80;99.90;;;;;;5154172;27;20770;-71
2023/02/24 07:48:45;;;;;;;5.70;2.10;;;6.90;99.90;;;;;;5153968;27;20499;-71
2023/02/24 07:51:16;;;;;;;5.40;2.33;;;6.90;99.90;;;;;;5155391;27;20401;-72
2023/02/24 07:53:42;;;;;;;11.10;2.70;;;7.00;99.90;;;;;;5155338;27;20776;-70
2023/02/24 07:56:12;;;;;;;7.87;2.77;;;7.00;99.90;;;;;;5155368;27;20427;-70
2023/02/24 07:58:40;;;;;;;11.57;2.70;;;7.00;99.90;;;;;;5155732;27;20425;-70
2023/02/24 08:01:07;;;;;;;8.23;3.17;;;7.00;99.90;;;;;;5122294;27;20462;-71
2023/02/24 08:03:40;;;;;;;11.43;4.40;;;7.00;99.90;;;;;;5113791;28;20443;-71
2023/02/24 08:06:14;;;;;;;21.90;4.10;;;6.90;99.90;;;;;;5114043;28;20403;-71
2023/02/24 08:08:59;;;;;;;8.40;3.83;;;6.90;99.90;;;;;;5113818;28;20551;-71
2023/02/24 08:11:34;;;;;;;7.83;3.37;;;6.90;99.90;;;;;;5114371;28;20414;-71
2023/02/24 08:14:09;;;;;;;19.73;3.43;;;6.90;99.90;;;;;;5114111;28;20922;-71
2023/02/24 08:16:38;;;;;;;10.40;3.30;;;6.90;99.90;;;;;;5113615;28;20497;-71
2023/02/24 08:19:12;;;;;;;4.33;2.23;;;6.80;99.90;;;;;;5113153;28;20506;-71
2023/02/24 08:21:46;;;;;;;7.57;2.93;;;6.80;99.90;;;;;;5113476;28;20599;-71
2023/02/24 08:24:17;;;;;;;6.90;2.80;;;7.10;99.90;;;;;;5113445;28;20444;-71
2023/02/24 08:27:02;;;;;;;7.80;3.73;;;7.30;99.90;;;;;;5113321;28;20482;-71
2023/02/24 08:29:39;;;;;;;4.30;3.13;;;7.60;99.90;;;;;;5119736;27;20426;-73
2023/02/24 08:32:08;;;;;;;17.60;5.33;;;7.80;99.90;;;;;;5133912;27;20389;-71
2023/02/24 08:34:37;;;;;;;6.20;3.20;;;7.90;99.90;;;;;;5133820;27;20515;-71
2023/02/24 08:37:03;;;;;;;12.40;2.80;;;7.90;99.90;;;;;;5133518;27;20884;-71
2023/02/24 08:39:32;;;;;;;4.70;3.10;;;8.10;99.90;;;;;;5133620;27;20426;-71
2023/02/24 08:41:58;;;;;;;5.57;2.60;;;8.20;99.90;;;;;;5137006;27;20452;-71
2023/02/24 08:44:26;;;;;;;6.37;2.77;;;8.40;99.90;;;;;;5142536;27;20426;-71
2023/02/24 08:46:53;;;;;;;11.37;3.23;;;8.40;99.90;;;;;;5152823;27;20164;-71
2023/02/24 08:49:20;;;;;;;12.90;3.70;;;8.20;99.90;;;;;;5153913;27;20971;-71
2023/02/24 08:51:47;;;;;;;6.20;3.10;;;8.30;99.90;;;;;;5154136;27;20412;-71
2023/02/24 08:54:16;;;;;;;6.80;2.93;;;8.00;99.90;;;;;;5152875;27;20457;-71
2023/02/24 08:56:54;;;;;;;9.63;3.07;;;8.00;99.90;;;;;;5154319;27;20425;-71
2023/02/24 08:59:36;;;;;;;8.10;3.17;;;8.00;99.90;;;;;;5146168;27;20482;-71
2023/02/24 09:04:51;;;;;;;4.50;3.17;;;8.30;99.90;;;;;;5121534;27;20904;-72
2023/02/24 09:07:26;;;;;;;3.87;2.20;;;8.40;99.90;;;;;;5132925;27;20410;-72
2023/02/24 09:09:55;;;;;;;4.70;2.50;;;8.50;99.90;;;;;;5133202;27;20421;-72
2023/02/24 09:12:27;;;;;;;2.50;1.87;;;8.60;99.90;;;;;;5133074;27;21041;-72
2023/02/24 09:15:00;;;;;;;2.13;1.50;;;8.60;99.90;;;;;;5131249;27;20394;-72
2023/02/24 09:17:48;;;;;;;4.20;1.80;;;8.60;99.90;;;;;;5132890;27;20390;-72
2023/02/24 09:23:07;;;;;;;3.13;1.33;;;8.70;99.90;;;;;;5133386;27;20535;-70
2023/02/24 09:25:48;;;;;;;4.23;1.43;;;8.90;99.90;;;;;;5132968;27;20444;-70
2023/02/24 09:28:25;;;;;;;4.63;1.90;;;9.00;99.90;;;;;;5132544;27;20390;-71
2023/02/24 09:30:57;;;;;;;3.00;1.63;;;9.20;99.90;;;;;;5111205;28;20461;-71
2023/02/24 09:33:28;;;;;;;6.90;1.93;;;9.40;99.90;;;;;;5112404;28;20402;-71
2023/02/24 09:36:11;;;;;;;4.60;1.70;;;9.60;99.90;;;;;;5112502;28;20852;-71
2023/02/24 09:42:23;;;;;;;6.73;2.10;;;10.00;99.90;;;;;;5112265;28;20858;-72
2023/02/24 09:44:51;;;;;;;4.80;2.20;;;10.20;99.90;;;;;;5111692;28;20970;-71
2023/02/24 09:50:19;;;;;;;8.07;3.00;;;10.30;99.90;;;;;;5142840;27;20420;-71
2023/02/24 09:52:52;;;;;;;4.60;2.50;;;10.10;99.90;;;;;;5153049;27;20457;-71
2023/02/24 09:55:34;;;;;;;7.23;2.53;;;9.90;99.90;;;;;;5152124;27;20409;-71
2023/02/24 09:58:23;;;;;;;2.63;2.03;;;10.10;99.90;;;;;;5151820;27;20753;-71
2023/02/24 10:01:19;;;;;;;4.73;1.73;;;10.20;99.90;;;;;;5113008;27;20537;-71
2023/02/24 10:04:11;;;;;;;4.93;2.30;;;10.30;99.90;;;;;;5112061;28;20382;-71
2023/02/24 10:06:45;;;;;;;4.83;3.13;;;10.20;99.90;;;;;;5111941;28;20762;-71
2023/02/24 10:09:36;;;;;;;4.17;2.73;;;10.40;99.90;;;;;;5111655;28;20429;-71
2023/02/24 10:12:15;;;;;;;9.87;3.10;;;10.60;99.90;;;;;;5110701;28;20406;-71
2023/02/24 10:17:48;;;;;;;5.77;2.93;;;11.10;99.90;;;;;;5111761;28;20754;-71
2023/02/24 10:20:29;;;;;;;4.57;2.73;;;11.10;99.90;;;;;;5111823;28;20499;-71
2023/02/24 10:23:31;;;;;;;7.63;3.23;;;11.20;99.90;;;;;;5111907;28;20480;-71
2023/02/24 10:26:20;;;;;;;6.47;2.93;;;11.10;99.90;;;;;;5112715;28;20487;-71
2023/02/24 10:28:58;;;;;;;4.23;3.00;;;10.80;99.90;;;;;;5115412;27;20909;-71
2023/02/24 10:31:40;;;;;;;16.13;3.80;;;10.50;99.90;;;;;;5131706;27;20412;-71
2023/02/24 10:34:25;;;;;;;5.87;3.10;;;10.40;99.90;;;;;;5136120;27;20389;-71
2023/02/24 10:36:51;;;;;;;7.10;3.03;;;10.30;99.90;;;;;;5135897;27;20409;-71
2023/02/24 10:39:19;;;;;;;4.20;2.90;;;10.20;99.90;;;;;;5136053;27;20452;-71
2023/02/24 10:41:57;;;;;;;3.57;2.67;;;10.00;99.90;;;;;;5135958;27;20836;-71
2023/02/24 10:44:34;;;;;;;7.83;3.70;;;9.90;99.90;;;;;;5134694;27;20509;-71
2023/02/24 10:47:10;;;;;;;3.73;2.97;;;9.70;99.90;;;;;;5135750;27;20408;-72
2023/02/24 10:49:56;;;;;;;4.53;2.50;;;9.70;99.90;;;;;;5134601;27;20425;-72
2023/02/24 10:52:52;;;;;;;5.47;2.97;;;9.60;99.90;;;;;;5135945;27;20401;-72
2023/02/24 10:55:27;;;;;;;5.50;3.10;;;9.50;99.90;;;;;;5119352;27;20411;-72
2023/02/24 10:58:05;;;;;;;7.00;3.00;;;9.40;99.90;;;;;;5115013;28;20475;-72
2023/02/24 11:03:34;;;;;;;7.57;3.23;;;9.20;99.90;;;;;;5138929;27;20446;-72
2023/02/24 11:08:53;;;;;;;6.10;2.70;;;9.00;99.90;;;;;;5156157;27;20401;-71
2023/02/24 11:11:28;;;;;;;3.70;2.30;;;8.90;99.90;;;;;;5156361;27;20805;-71
2023/02/24 11:19:31;;;;;;;4.10;2.77;;;8.60;99.90;;;;;;5156057;27;20423;-71
2023/02/24 11:21:57;;;;;;;7.40;2.40;;;8.40;99.90;;;;;;5155971;27;20926;-71
2023/02/24 11:24:22;;;;;;;6.73;2.73;;;8.40;99.90;;;;;;5155953;27;20393;-71
2023/02/24 11:26:48;;;;;;;6.60;2.90;;;8.20;99.90;;;;;;5155908;27;20860;-71
2023/02/24 11:30:08;;;;;;;2.90;2.10;;;8.20;99.90;;;;;;5155771;27;20695;-72
2023/02/24 11:32:51;;;;;;;9.30;2.93;;;8.10;99.90;;;;;;5071568;28;20408;-71
2023/02/24 11:35:48;;;;;;;9.83;3.53;;;8.10;99.90;;;;;;5155891;27;20890;-70
2023/02/24 11:38:33;;;;;;;7.20;3.30;;;8.00;99.90;;;;;;5153247;27;20401;-71
2023/02/24 11:41:24;;;;;;;5.60;2.40;;;8.00;99.90;;;;;;5154514;27;20527;-71
2023/02/24 11:44:46;;;;;;;3.63;2.27;;;7.70;99.90;;;;;;5143197;27;20397;-71
2023/02/24 11:47:16;;;;;;;6.20;2.53;;;7.80;99.90;;;;;;5070854;28;20582;-71
2023/02/24 11:49:49;;;;;;;5.93;2.40;;;7.50;99.90;;;;;;5140355;27;20421;-71
2023/02/24 11:52:28;;;;;;;3.83;2.57;;;7.30;99.90;;;;;;5155066;27;20483;-72
2023/02/24 11:54:56;;;;;;;4.33;2.27;;;7.30;99.90;;;;;;5121215;27;20407;-71
2023/02/24 11:57:36;;;;;;;4.33;2.77;;;7.40;99.90;;;;;;5113738;28;20407;-71
2023/02/24 12:00:12;;;;;;;8.07;2.27;;;7.40;99.90;;;;;;5112562;28;20960;-71
2023/02/24 12:03:02;;;;;;;4.67;2.43;;;7.50;99.90;;;;;;5114166;28;20412;-71
2023/02/24 12:05:55;;;;;;;4.07;2.63;;;7.30;99.90;;;;;;5113865;28;20413;-72
2023/02/24 12:08:30;;;;;;;4.00;2.90;;;7.30;99.90;;;;;;5108441;28;20439;-72
2023/02/24 12:11:05;;;;;;;5.60;3.20;;;7.30;99.90;;;;;;5113880;28;20390;-72
2023/02/24 12:14:22;;;;;;;2.50;2.23;;;7.40;99.90;;;;;;5143575;27;20432;-72
2023/02/24 12:16:55;;;;;;;6.10;2.60;;;7.20;99.90;;;;;;5097992;27;20414;-72
2023/02/24 12:19:32;;;;;;;5.70;2.97;;;7.10;99.90;;;;;;5112168;28;20525;-72
2023/02/24 12:22:04;;;;;;;3.27;2.97;;;7.00;99.90;;;;;;5113529;28;20450;-72
2023/02/24 12:24:31;;;;;;;6.40;2.57;;;7.10;99.90;;;;;;5113737;27;20421;-72
2023/02/24 12:27:32;;;;;;;4.00;2.73;;;7.10;99.90;;;;;;5113118;28;20490;-72
2023/02/24 12:30:21;;;;;;;15.30;3.50;;;7.30;99.90;;;;;;5112238;28;20572;-72
2023/02/24 12:33:00;;;;;;;8.00;2.73;;;7.60;99.90;;;;;;5113316;28;20403;-72
2023/02/24 12:35:50;;;;;;;4.90;2.90;;;7.60;99.90;;;;;;5113273;28;20434;-71
2023/02/24 12:38:46;;;;;;;11.20;3.40;;;7.70;99.90;;;;;;5112958;28;20438;-71
2023/02/24 12:41:31;;;;;;;7.30;2.80;;;7.80;99.90;;;;;;5113056;28;20457;-71
2023/02/24 12:44:08;;;;;;;4.00;2.83;;;7.90;99.90;;;;;;5113174;28;20407;-71
2023/02/24 12:46:36;;;;;;;3.50;2.53;;;7.90;99.90;;;;;;5113355;27;20399;-71
2023/02/24 12:49:36;;;;;;;5.80;2.60;;;7.80;99.90;;;;;;5121366;27;20422;-71
2023/02/24 12:52:23;;;;;;;8.77;3.00;;;7.80;99.90;;;;;;5113097;28;20835;-71
2023/02/24 12:55:01;;;;;;;5.30;2.77;;;7.80;99.90;;;;;;5112998;28;20486;-72
2023/02/24 12:57:32;;;;;;;5.37;2.90;;;7.60;99.90;;;;;;5111413;28;20407;-72
2023/02/24 13:00:05;;;;;;;5.70;2.90;;;7.40;99.90;;;;;;5111216;28;20538;-72
2023/02/24 13:02:39;;;;;;;6.93;2.93;;;7.30;99.90;;;;;;5112881;28;20395;-71
2023/02/24 13:05:18;;;;;;;4.43;2.83;;;7.30;99.90;;;;;;5124008;27;20844;-71
2023/02/24 13:08:21;;;;;;;2.90;2.53;;;7.30;99.90;;;;;;5132944;27;20396;-71
2023/02/24 13:11:08;;;;;;;4.17;2.60;;;7.10;99.90;;;;;;5133295;27;20926;-71
2023/02/24 13:13:53;;;;;;;3.10;2.40;;;7.30;99.90;;;;;;5133108;27;20421;-72
2023/02/24 13:16:33;;;;;;;18.93;4.43;;;7.30;99.90;;;;;;5132865;27;20528;-72
2023/02/24 13:19:19;;;;;;;5.20;2.00;;;7.00;99.90;;;;;;5112290;28;20427;-71
2023/02/24 13:22:15;;;;;;;19.03;3.20;;;7.00;99.90;;;;;;5142795;27;20471;-73
2023/02/24 13:25:07;;;;;;;5.67;2.77;;;7.00;99.90;;;;;;5115705;27;20466;-71
2023/02/24 13:27:38;;;;;;;9.30;3.23;;;7.00;99.90;;;;;;5121742;27;20902;-71
2023/02/24 13:30:21;;;;;;;11.67;4.20;;;7.10;99.90;;;;;;5132923;27;20420;-72
2023/02/24 13:32:59;;;;;;;4.97;2.83;;;7.10;99.90;;;;;;5131476;27;20883;-72
2023/02/24 13:35:24;;;;;;;5.43;2.80;;;7.10;99.90;;;;;;5132886;27;20413;-72
2023/02/24 13:37:51;;;;;;;4.90;2.70;;;7.10;99.90;;;;;;5132469;27;20406;-72
2023/02/24 13:40:22;;;;;;;7.43;3.87;;;7.10;99.90;;;;;;5132827;27;20552;-72
2023/02/24 13:42:58;;;;;;;6.80;2.60;;;7.10;99.90;;;;;;5132850;28;20397;-72
2023/02/24 13:45:32;;;;;;;5.67;2.23;;;7.20;99.90;;;;;;5132866;27;20880;-72
2023/02/24 13:48:12;;;;;;;7.20;2.40;;;7.20;99.90;;;;;;5116088;27;20418;-72
2023/02/24 13:50:41;;;;;;;4.73;2.60;;;7.30;99.90;;;;;;5112125;28;20815;-71
2023/02/24 13:53:32;;;;;;;9.87;2.70;;;7.40;99.90;;;;;;5111979;28;20402;-72
2023/02/24 13:56:19;;;;;;;4.97;2.67;;;7.50;99.90;;;;;;5112191;28;20455;-72
2023/02/24 13:59:23;;;;;;;5.97;1.90;;;7.60;99.90;;;;;;5112063;28;20842;-70
2023/02/24 14:02:00;;;;;;;5.77;2.70;;;7.70;99.90;;;;;;5122098;27;20449;-71
2023/02/24 14:04:35;;;;;;;6.67;2.97;;;7.60;99.90;;;;;;5125435;27;20397;-70